Terminal Aerodrome Forecast
Issued by NWS

Home | Current Version | Previous Version | Text Only | Print | Product List | Glossary On
Versions: 1 2 3 4 5 6 7 8 9 10 11 12 13 14 15 16 17 18 19
200
FTUS43 KPAH 151725
TAFCGI
TAF
KCGI 151725Z 1518/1618 34012KT P6SM OVC040
      TEMPO 1518/1520 28008KT 3SM -SN BR SCT008 BKN016 OVC040
     FM152200 34011G15KT P6SM OVC120
      TEMPO 1522/1524 -SN SCT025
     FM160600 34013G20KT P6SM SKC
     FM160900 34012G19KT P6SM BKN022=

USA.gov is the U.S. government's official web portal to all federal, state and local government web resources and services.